Curtice, Ohio
Current Conditions -  °F | °C
As of 2:53 AM on Wednesday 22 Oct 2014 (Local Time) from KTDZ Reporting Station
Overcast Overcast  
Wind Chill: 41°   Ceiling: 1800
Heat Index: 46°   Visibility: 10mi
Dew Point: 37°   Wind: 10mph
Humidity: 71%   Direction: 350°N
Pressure: 30.21"   Gusts: NA
Location:  41.62°N, 83.37°W
Report Text: KTDZ 220653Z AUTO 35009KT 10SM OVC018 08/03 A3021 RMK AO2 SLP231 T00780028 TSNO
Loading
Personal Weather Stations






























Interactive Weather Map
Tropical Storm Tracking
New forecast layout! Learn more

10-Day Weather Forecast

Advertisements
Track Severe Weather on mobile